createdAt,value
2019-05-29T00:00:29.067Z,9.60
2019-05-29T00:02:58.480Z,11.18
2019-05-29T00:05:27.774Z,10.30
2019-05-29T00:07:57.384Z,9.63
2019-05-29T00:10:26.561Z,10.63
2019-05-29T00:12:55.956Z,10.00
2019-05-29T00:15:25.473Z,10.65
2019-05-29T00:17:54.895Z,12.03
2019-05-29T00:20:24.274Z,12.68
2019-05-29T00:22:53.983Z,11.73
2019-05-29T00:25:23.383Z,11.00
2019-05-29T00:27:52.905Z,12.03
2019-05-29T00:30:22.304Z,11.35
2019-05-29T00:32:51.585Z,11.53
2019-05-29T00:35:21.104Z,13.25
2019-05-29T00:37:50.305Z,13.43
2019-05-29T00:40:20.218Z,13.48
2019-05-29T00:42:49.423Z,15.58
2019-05-29T00:45:18.829Z,14.83
2019-05-29T00:47:48.227Z,14.18
2019-05-29T00:50:18.147Z,15.60
2019-05-29T00:52:47.535Z,17.73
2019-05-29T00:55:17.063Z,15.08
2019-05-29T00:57:46.559Z,18.05
2019-05-29T01:00:17.363Z,14.70
2019-05-29T01:02:47.382Z,13.32
2019-05-29T01:05:18.075Z,16.37
2019-05-29T01:07:47.704Z,13.58
2019-05-29T01:10:17.170Z,13.85
2019-05-29T01:12:46.518Z,14.38
2019-05-29T01:15:17.402Z,12.40
2019-05-29T01:17:46.870Z,13.15
2019-05-29T01:20:16.489Z,14.95
2019-05-29T01:22:45.983Z,11.85
2019-05-29T01:25:16.504Z,13.65
2019-05-29T01:27:46.214Z,12.13
2019-05-29T01:30:17.219Z,15.40
2019-05-29T01:32:46.886Z,11.55
2019-05-29T01:35:16.388Z,13.13
2019-05-29T01:37:45.866Z,15.53
2019-05-29T01:40:19.936Z,12.25
2019-05-29T01:42:49.789Z,13.50
2019-05-29T01:45:19.465Z,12.35
2019-05-29T01:47:48.897Z,9.95
2019-05-29T01:50:19.377Z,14.28
2019-05-29T01:52:49.135Z,11.50
2019-05-29T01:55:19.746Z,10.55
2019-05-29T01:57:49.276Z,9.50
2019-05-29T02:00:20.131Z,11.70
2019-05-29T02:02:49.621Z,12.78
2019-05-29T02:05:20.023Z,12.63
2019-05-29T02:07:49.523Z,12.20
2019-05-29T02:10:20.258Z,11.97
2019-05-29T02:12:49.294Z,15.43
2019-05-29T02:15:25.967Z,11.25
2019-05-29T02:17:49.714Z,15.78
2019-05-29T02:20:21.277Z,12.93
2019-05-29T02:22:50.654Z,15.65
2019-05-29T02:25:22.401Z,13.25
2019-05-29T02:27:51.614Z,13.45
2019-05-29T02:30:23.634Z,15.20
2019-05-29T02:32:53.547Z,15.00
2019-05-29T02:35:24.619Z,13.22
2019-05-29T02:37:54.035Z,13.28
2019-05-29T02:40:25.618Z,18.73
2019-05-29T02:42:54.226Z,18.35
2019-05-29T02:45:26.260Z,15.00
2019-05-29T02:47:54.515Z,17.85
2019-05-29T02:50:24.192Z,18.40
2019-05-29T02:52:55.356Z,13.78
2019-05-29T02:55:24.788Z,16.90
2019-05-29T02:57:55.148Z,14.35
2019-05-29T03:00:43.796Z,16.82
2019-05-29T03:03:13.314Z,15.15
2019-05-29T03:05:43.155Z,13.13
2019-05-29T03:08:12.554Z,15.20
2019-05-29T03:10:41.959Z,12.95
2019-05-29T03:13:11.154Z,17.07
2019-05-29T03:15:40.555Z,13.15
2019-05-29T03:18:10.062Z,15.68
2019-05-29T03:20:39.559Z,17.35
2019-05-29T03:23:08.976Z,15.03
2019-05-29T03:25:38.474Z,17.98
2019-05-29T03:28:07.554Z,19.02
2019-05-29T03:30:44.945Z,15.30
2019-05-29T03:33:07.904Z,18.20
2019-05-29T03:35:46.134Z,14.05
2019-05-29T03:38:08.547Z,19.65
2019-05-29T03:40:38.686Z,19.52
2019-05-29T03:43:08.895Z,16.80
2019-05-29T03:45:38.295Z,17.05
2019-05-29T03:48:07.598Z,15.00
2019-05-29T03:50:38.180Z,14.98
2019-05-29T03:53:07.637Z,15.15
2019-05-29T03:55:37.928Z,15.03
2019-05-29T03:58:07.356Z,15.65
2019-05-29T04:00:45.464Z,16.85
2019-05-29T04:03:07.697Z,17.73
2019-05-29T04:05:38.028Z,17.55
2019-05-29T04:08:07.513Z,18.60
2019-05-29T04:10:39.732Z,20.57
2019-05-29T04:13:09.196Z,17.55
2019-05-29T04:15:40.221Z,17.20
2019-05-29T04:18:09.812Z,16.97
2019-05-29T04:20:39.190Z,20.35
2019-05-29T04:23:09.155Z,15.88
2019-05-29T04:25:42.480Z,16.85
2019-05-29T04:28:14.295Z,17.73
2019-05-29T04:30:45.133Z,22.95
2019-05-29T04:33:14.317Z,16.57
2019-05-29T04:35:43.726Z,19.60
2019-05-29T04:38:12.835Z,18.77
2019-05-29T04:40:42.205Z,19.73
2019-05-29T04:43:11.512Z,18.17
2019-05-29T04:45:40.934Z,18.70
2019-05-29T04:48:10.013Z,19.25
2019-05-29T04:50:40.598Z,19.70
2019-05-29T04:53:10.454Z,19.92
2019-05-29T04:55:39.459Z,22.73
2019-05-29T04:58:08.614Z,21.62
2019-05-29T05:00:39.255Z,21.70
2019-05-29T05:03:08.800Z,18.00
2019-05-29T05:05:38.024Z,22.10
2019-05-29T05:08:07.272Z,23.45
2019-05-29T05:10:41.359Z,19.20
2019-05-29T05:13:10.907Z,18.30
2019-05-29T05:15:40.417Z,17.82
2019-05-29T05:18:09.871Z,17.17
2019-05-29T05:20:40.367Z,20.77
2019-05-29T05:23:09.994Z,16.82
2019-05-29T05:25:40.861Z,21.52
2019-05-29T05:28:10.434Z,17.20
2019-05-29T05:30:40.807Z,21.65
2019-05-29T05:33:10.403Z,21.87
2019-05-29T05:35:40.736Z,17.87
2019-05-29T05:38:10.557Z,14.18
2019-05-29T05:40:42.700Z,18.80
2019-05-29T05:43:23.144Z,17.20
2019-05-29T05:45:42.243Z,17.05
2019-05-29T05:48:11.432Z,17.57
2019-05-29T05:50:41.512Z,17.32
2019-05-29T05:53:10.657Z,17.80
2019-05-29T05:55:40.055Z,19.67
2019-05-29T05:58:09.461Z,17.82
2019-05-29T06:00:39.911Z,19.50
2019-05-29T06:03:09.256Z,16.57
2019-05-29T06:05:38.735Z,17.25
2019-05-29T06:08:08.074Z,19.17
2019-05-29T06:10:38.207Z,17.12
2019-05-29T06:13:07.794Z,19.23
2019-05-29T06:15:37.115Z,15.70
2019-05-29T06:18:20.644Z,13.15
2019-05-29T06:20:38.898Z,17.15
2019-05-29T06:23:08.474Z,13.88
2019-05-29T06:25:39.955Z,13.10
2019-05-29T06:28:08.919Z,15.78
2019-05-29T06:30:40.503Z,12.80
2019-05-29T06:33:09.355Z,10.60
2019-05-29T06:35:39.619Z,12.95
2019-05-29T06:38:09.395Z,10.93
2019-05-29T06:40:44.023Z,14.23
2019-05-29T06:43:24.596Z,12.80
2019-05-29T06:45:54.595Z,11.00
2019-05-29T06:48:41.559Z,9.60
2019-05-29T06:50:57.639Z,11.68
2019-05-29T06:53:27.335Z,14.85
2019-05-29T06:55:57.948Z,9.50
2019-05-29T06:58:27.571Z,10.50
2019-05-29T07:00:56.950Z,10.80
2019-05-29T07:03:26.356Z,12.05
2019-05-29T07:05:55.660Z,10.65
2019-05-29T07:08:38.152Z,16.62
2019-05-29T07:10:55.798Z,11.12
2019-05-29T07:13:25.110Z,10.63
2019-05-29T07:15:54.596Z,10.38
2019-05-29T07:18:23.955Z,9.95
2019-05-29T07:20:53.194Z,13.38
2019-05-29T07:23:22.373Z,11.48
2019-05-29T07:25:51.677Z,12.55
2019-05-29T07:28:21.112Z,12.78
2019-05-29T07:31:00.508Z,12.23
2019-05-29T07:33:21.413Z,8.68
2019-05-29T07:35:50.713Z,8.48
2019-05-29T07:38:20.133Z,7.15
2019-05-29T07:40:50.165Z,13.22
2019-05-29T07:43:19.663Z,7.60
2019-05-29T07:45:48.838Z,9.40
2019-05-29T07:48:18.238Z,7.62
2019-05-29T07:50:48.460Z,7.87
2019-05-29T07:53:18.380Z,7.90
2019-05-29T07:55:48.874Z,12.65
2019-05-29T07:58:18.768Z,7.00
2019-05-29T08:01:09.270Z,6.17
2019-05-29T08:03:19.363Z,8.88
2019-05-29T08:05:51.434Z,9.25
2019-05-29T08:08:19.495Z,9.78
2019-05-29T08:10:49.744Z,9.10
2019-05-29T08:13:19.336Z,11.88
2019-05-29T08:15:58.482Z,7.85
2019-05-29T08:18:19.537Z,5.97
2019-05-29T08:20:48.855Z,7.95
2019-05-29T08:23:18.156Z,9.48
2019-05-29T08:25:47.720Z,9.15
2019-05-29T08:28:17.374Z,6.25
2019-05-29T08:30:51.960Z,5.72
2019-05-29T08:33:17.814Z,10.25
2019-05-29T08:35:47.550Z,7.50
2019-05-29T08:38:17.954Z,3.75
2019-05-29T08:40:47.461Z,7.17
2019-05-29T08:43:16.755Z,5.75
2019-05-29T08:45:46.013Z,5.30
2019-05-29T08:48:15.333Z,8.85
2019-05-29T08:50:45.491Z,4.22
2019-05-29T08:53:15.274Z,5.25
2019-05-29T08:55:46.062Z,5.75
2019-05-29T08:58:15.618Z,9.78
2019-05-29T09:00:48.546Z,5.60
2019-05-29T09:03:16.055Z,7.20
2019-05-29T09:05:46.573Z,3.92
2019-05-29T09:08:16.275Z,6.10
2019-05-29T09:10:47.115Z,8.53
2019-05-29T09:13:17.565Z,6.80
2019-05-29T09:15:46.694Z,7.97
2019-05-29T09:18:17.046Z,8.33
2019-05-29T09:21:02.026Z,6.25
2019-05-29T09:23:18.879Z,8.25
2019-05-29T09:25:48.456Z,6.72
2019-05-29T09:28:18.347Z,7.72
2019-05-29T09:30:47.475Z,6.40
2019-05-29T09:33:18.747Z,4.85
2019-05-29T09:35:48.115Z,6.90
2019-05-29T09:38:18.675Z,5.85
2019-05-29T09:40:48.354Z,4.53
2019-05-29T09:43:18.682Z,6.20
2019-05-29T09:45:48.544Z,4.65
2019-05-29T09:48:20.195Z,6.00
2019-05-29T09:50:50.761Z,5.00
2019-05-29T09:53:20.378Z,6.17
2019-05-29T09:55:49.544Z,5.53
2019-05-29T09:58:18.977Z,10.03
2019-05-29T10:01:07.228Z,7.75
2019-05-29T10:03:19.416Z,5.80
2019-05-29T10:05:48.834Z,7.92
2019-05-29T10:08:18.336Z,8.58
2019-05-29T10:10:47.528Z,5.50
2019-05-29T10:13:16.872Z,6.10
2019-05-29T10:15:46.316Z,4.33
2019-05-29T10:18:31.461Z,5.78
2019-05-29T10:20:46.682Z,5.67
2019-05-29T10:23:16.075Z,4.37
2019-05-29T10:25:45.157Z,4.90
2019-05-29T10:28:14.456Z,7.70
2019-05-29T10:30:44.426Z,5.17
2019-05-29T10:33:14.894Z,6.00
2019-05-29T10:35:44.755Z,6.78
2019-05-29T10:38:14.519Z,4.95
2019-05-29T10:40:50.127Z,6.95
2019-05-29T10:43:19.673Z,3.70
2019-05-29T10:45:48.021Z,7.08
2019-05-29T10:48:17.157Z,5.85
2019-05-29T10:50:49.907Z,3.85
2019-05-29T10:53:17.388Z,4.37
2019-05-29T10:55:46.795Z,3.15
2019-05-29T10:58:15.974Z,5.87
2019-05-29T11:00:45.910Z,3.47
2019-05-29T11:03:16.219Z,4.67
2019-05-29T11:05:45.651Z,5.65
2019-05-29T11:08:14.912Z,4.08
2019-05-29T11:10:44.315Z,6.72
2019-05-29T11:13:13.495Z,4.40
2019-05-29T11:15:42.915Z,7.03
2019-05-29T11:18:12.333Z,4.30
2019-05-29T11:20:41.517Z,2.80
2019-05-29T11:23:11.035Z,5.60
2019-05-29T11:25:40.212Z,8.23
2019-05-29T11:28:09.614Z,5.62
2019-05-29T11:30:38.815Z,9.40
2019-05-29T11:33:08.321Z,7.17
2019-05-29T11:35:38.132Z,6.65
2019-05-29T11:38:07.435Z,4.95
2019-05-29T11:40:37.001Z,7.87
2019-05-29T11:43:06.558Z,4.95
2019-05-29T11:45:36.135Z,5.05
2019-05-29T11:48:05.968Z,6.47
2019-05-29T11:50:35.156Z,3.05
2019-05-29T11:53:04.554Z,2.87
2019-05-29T11:55:33.754Z,7.78
2019-05-29T11:58:02.955Z,3.80
2019-05-29T12:00:32.554Z,5.53
2019-05-29T12:03:01.870Z,4.28
2019-05-29T12:05:31.054Z,3.08
2019-05-29T12:08:01.868Z,5.95
2019-05-29T12:10:31.495Z,6.03
2019-05-29T12:13:01.741Z,2.98
2019-05-29T12:15:30.913Z,5.47
2019-05-29T12:18:22.232Z,4.83
2019-05-29T12:20:31.255Z,6.05
2019-05-29T12:23:24.129Z,5.83
2019-05-29T12:25:32.106Z,4.65
2019-05-29T12:28:01.483Z,5.05
2019-05-29T12:30:31.500Z,2.85
2019-05-29T12:33:01.167Z,3.35
2019-05-29T12:35:30.834Z,5.12
2019-05-29T12:38:01.382Z,7.33
2019-05-29T12:40:31.065Z,4.03
2019-05-29T12:43:01.934Z,4.22
2019-05-29T12:45:31.515Z,5.53
2019-05-29T12:48:09.911Z,4.87
2019-05-29T12:50:34.586Z,5.62
2019-05-29T12:53:03.929Z,2.62
2019-05-29T12:55:33.333Z,6.75
2019-05-29T12:58:04.315Z,4.30
2019-05-29T13:00:33.656Z,2.37
2019-05-29T13:03:03.773Z,5.30
2019-05-29T13:05:34.414Z,3.52
2019-05-29T13:08:05.146Z,3.50
2019-05-29T13:10:34.946Z,4.83
2019-05-29T13:13:10.115Z,5.25
2019-05-29T13:15:35.593Z,3.87
2019-05-29T13:18:09.246Z,2.15
2019-05-29T13:20:35.930Z,3.80
2019-05-29T13:23:07.349Z,4.95
2019-05-29T13:25:38.020Z,2.77
2019-05-29T13:28:08.340Z,3.75
2019-05-29T13:30:40.514Z,5.00
2019-05-29T13:33:10.547Z,3.40
2019-05-29T13:35:40.199Z,3.62
2019-05-29T13:38:09.637Z,3.42
2019-05-29T13:40:39.027Z,5.03
2019-05-29T13:43:14.882Z,3.85
2019-05-29T13:45:39.995Z,6.03
2019-05-29T13:48:09.189Z,3.33
2019-05-29T13:50:38.894Z,5.35
2019-05-29T13:53:08.513Z,3.02
2019-05-29T13:55:37.733Z,4.37
2019-05-29T13:58:07.818Z,4.08
2019-05-29T14:00:37.831Z,4.05
2019-05-29T14:03:09.208Z,4.75
2019-05-29T14:05:39.615Z,2.77
2019-05-29T14:08:09.189Z,3.45
2019-05-29T14:10:38.994Z,4.03
2019-05-29T14:13:09.338Z,3.08
2019-05-29T14:15:38.853Z,2.27
2019-05-29T14:18:08.995Z,5.22
2019-05-29T14:20:38.367Z,4.87
2019-05-29T14:23:07.672Z,4.92
2019-05-29T14:25:37.844Z,5.72
2019-05-29T14:28:08.676Z,4.22
2019-05-29T14:30:38.237Z,6.70
2019-05-29T14:33:12.585Z,4.83
2019-05-29T14:35:38.834Z,5.30
2019-05-29T14:38:11.598Z,7.92
2019-05-29T14:40:39.122Z,2.92
2019-05-29T14:43:11.720Z,3.12
2019-05-29T14:45:39.353Z,5.15
2019-05-29T14:48:10.110Z,5.62
2019-05-29T14:50:39.595Z,2.70
2019-05-29T14:53:09.412Z,5.10
2019-05-29T14:55:42.097Z,4.85
2019-05-29T14:58:11.929Z,3.87
2019-05-29T15:00:41.389Z,6.10
2019-05-29T15:03:11.494Z,5.30
2019-05-29T15:05:41.121Z,2.58
2019-05-29T15:08:12.356Z,5.53
2019-05-29T15:10:41.772Z,4.45
2019-05-29T15:13:13.101Z,4.60
2019-05-29T15:15:42.014Z,3.42
2019-05-29T15:18:16.349Z,2.52
2019-05-29T15:20:42.253Z,4.42
2019-05-29T15:23:11.578Z,6.25
2019-05-29T15:25:40.954Z,2.40
2019-05-29T15:28:13.623Z,4.20
2019-05-29T15:30:41.175Z,3.08
2019-05-29T15:33:10.882Z,4.35
2019-05-29T15:35:40.813Z,2.62
2019-05-29T15:38:10.784Z,3.72
2019-05-29T15:40:40.215Z,5.25
2019-05-29T15:43:10.750Z,3.65
2019-05-29T15:45:40.345Z,4.35
2019-05-29T15:48:11.026Z,2.60
2019-05-29T15:50:40.434Z,3.33
2019-05-29T15:53:11.023Z,5.97
2019-05-29T15:55:40.304Z,5.17
2019-05-29T15:58:11.116Z,3.92
2019-05-29T16:00:40.341Z,3.22
2019-05-29T16:03:09.765Z,3.52
2019-05-29T16:05:39.154Z,4.47
2019-05-29T16:08:09.824Z,6.40
2019-05-29T16:10:39.596Z,4.33
2019-05-29T16:13:08.899Z,2.70
2019-05-29T16:15:38.194Z,2.22
2019-05-29T16:18:18.983Z,5.03
2019-05-29T16:20:38.734Z,5.20
2019-05-29T16:23:08.135Z,4.42
2019-05-29T16:25:40.491Z,3.20
2019-05-29T16:28:08.582Z,4.58
2019-05-29T16:30:37.874Z,2.33
2019-05-29T16:33:07.312Z,1.92
2019-05-29T16:35:37.702Z,2.95
2019-05-29T16:38:07.315Z,4.62
2019-05-29T16:40:36.604Z,3.60
2019-05-29T16:43:05.922Z,5.97
2019-05-29T16:45:35.415Z,4.97
2019-05-29T16:48:04.825Z,4.15
2019-05-29T16:50:34.334Z,6.53
2019-05-29T16:53:03.842Z,3.35
2019-05-29T16:55:33.002Z,4.95
2019-05-29T16:58:02.511Z,6.10
2019-05-29T17:00:31.834Z,4.40
2019-05-29T17:03:01.235Z,3.83
2019-05-29T17:05:31.250Z,5.25
2019-05-29T17:08:00.779Z,4.35
2019-05-29T17:10:37.229Z,5.40
2019-05-29T17:13:07.630Z,3.50
2019-05-29T17:15:37.254Z,5.20
2019-05-29T17:18:06.755Z,6.15
2019-05-29T17:20:41.377Z,5.00
2019-05-29T17:23:10.779Z,5.67
2019-05-29T17:25:40.292Z,11.85
2019-05-29T17:28:10.096Z,9.20
2019-05-29T17:30:39.394Z,6.20
2019-05-29T17:33:08.992Z,6.05
2019-05-29T17:35:38.618Z,3.62
2019-05-29T17:38:08.217Z,4.10
2019-05-29T17:40:37.511Z,5.17
2019-05-29T17:43:06.917Z,6.28
2019-05-29T17:45:36.715Z,3.62
2019-05-29T17:48:06.334Z,6.08
2019-05-29T17:50:35.713Z,4.70
2019-05-29T17:53:05.211Z,5.72
2019-05-29T17:55:35.142Z,4.97
2019-05-29T17:58:04.449Z,4.25
2019-05-29T18:00:33.950Z,5.03
2019-05-29T18:03:03.362Z,4.37
2019-05-29T18:05:32.634Z,2.75
2019-05-29T18:08:02.274Z,4.62
2019-05-29T18:10:31.763Z,3.42
2019-05-29T18:13:01.273Z,5.55
2019-05-29T18:15:30.555Z,7.08
2019-05-29T18:17:59.958Z,6.08
2019-05-29T18:20:29.264Z,4.85
2019-05-29T18:22:58.876Z,3.75
2019-05-29T18:25:28.397Z,3.67
2019-05-29T18:27:57.993Z,5.33
2019-05-29T18:30:28.797Z,5.80
2019-05-29T18:32:58.159Z,5.62
2019-05-29T18:35:28.981Z,7.50
2019-05-29T18:37:58.678Z,3.50
2019-05-29T18:40:28.490Z,5.62
2019-05-29T18:42:58.494Z,7.12
2019-05-29T18:45:28.415Z,5.55
2019-05-29T18:47:58.789Z,5.20
2019-05-29T18:50:28.145Z,5.97
2019-05-29T18:52:57.734Z,4.33
2019-05-29T18:55:27.354Z,5.67
2019-05-29T18:57:56.714Z,6.75
2019-05-29T19:00:27.512Z,5.47
2019-05-29T19:02:57.094Z,7.90
2019-05-29T19:05:27.704Z,5.03
2019-05-29T19:07:57.425Z,7.28
2019-05-29T19:10:27.725Z,6.42
2019-05-29T19:12:57.356Z,8.25
2019-05-29T19:15:27.799Z,6.65
2019-05-29T19:17:57.494Z,6.10
2019-05-29T19:20:26.802Z,8.35
2019-05-29T19:22:56.198Z,6.87
2019-05-29T19:25:26.707Z,12.63
2019-05-29T19:27:56.142Z,11.35
2019-05-29T19:30:26.935Z,7.17
2019-05-29T19:32:56.534Z,7.25
2019-05-29T19:35:25.993Z,8.50
2019-05-29T19:37:55.538Z,8.15
2019-05-29T19:40:26.030Z,6.33
2019-05-29T19:42:55.820Z,7.03
2019-05-29T19:45:26.561Z,9.65
2019-05-29T19:47:56.362Z,6.85
2019-05-29T19:50:26.688Z,6.05
2019-05-29T19:52:56.454Z,7.47
2019-05-29T19:55:30.234Z,8.83
2019-05-29T19:57:57.341Z,5.90
2019-05-29T20:00:27.949Z,3.83
2019-05-29T20:02:57.782Z,6.03
2019-05-29T20:05:27.292Z,6.30
2019-05-29T20:07:57.095Z,8.48
2019-05-29T20:10:27.176Z,8.00
2019-05-29T20:12:56.612Z,7.72
2019-05-29T20:15:25.776Z,7.78
2019-05-29T20:17:55.214Z,6.75
2019-05-29T20:20:24.721Z,5.90
2019-05-29T20:22:54.537Z,8.00
2019-05-29T20:25:23.820Z,5.87
2019-05-29T20:28:05.495Z,10.65
2019-05-29T20:30:24.375Z,4.67
2019-05-29T20:32:53.563Z,8.08
2019-05-29T20:35:22.984Z,8.03
2019-05-29T20:37:52.369Z,6.15
2019-05-29T20:40:21.784Z,6.95
2019-05-29T20:42:51.375Z,8.25
2019-05-29T20:45:20.902Z,7.72
2019-05-29T20:47:50.383Z,8.78
2019-05-29T20:50:20.914Z,9.55
2019-05-29T20:52:50.323Z,9.70
2019-05-29T20:55:19.835Z,9.93
2019-05-29T20:57:49.110Z,8.48
2019-05-29T21:00:18.838Z,10.85
2019-05-29T21:02:48.127Z,7.25
2019-05-29T21:05:17.733Z,10.40
2019-05-29T21:07:47.135Z,6.15
2019-05-29T21:10:16.534Z,7.12
2019-05-29T21:12:47.600Z,13.45
2019-05-29T21:15:17.359Z,9.98
2019-05-29T21:17:46.793Z,14.75
2019-05-29T21:20:16.617Z,11.50
2019-05-29T21:22:45.792Z,15.28
2019-05-29T21:25:18.988Z,10.98
2019-05-29T21:27:49.312Z,10.40
2019-05-29T21:30:20.556Z,6.90
2019-05-29T21:32:49.779Z,10.58
2019-05-29T21:35:19.262Z,10.38
2019-05-29T21:37:48.572Z,10.60
2019-05-29T21:40:18.063Z,9.20
2019-05-29T21:42:47.377Z,11.97
2019-05-29T21:45:17.279Z,11.95
2019-05-29T21:47:47.313Z,11.60
2019-05-29T21:50:16.896Z,9.58
2019-05-29T21:52:46.102Z,10.35
2019-05-29T21:55:15.493Z,15.72
2019-05-29T21:57:47.154Z,12.15
2019-05-29T22:00:18.514Z,12.60
2019-05-29T22:02:48.563Z,8.03
2019-05-29T22:05:18.953Z,9.78
2019-05-29T22:07:48.977Z,7.40
2019-05-29T22:10:18.675Z,8.60
2019-05-29T22:12:47.873Z,6.92
2019-05-29T22:15:18.045Z,5.85
2019-05-29T22:17:47.494Z,7.75
2019-05-29T22:20:16.794Z,7.53
2019-05-29T22:22:46.162Z,6.78
2019-05-29T22:25:15.797Z,9.55
2019-05-29T22:27:44.892Z,5.78
2019-05-29T22:30:14.394Z,6.15
2019-05-29T22:32:43.694Z,6.55
2019-05-29T22:35:13.200Z,4.78
2019-05-29T22:37:42.696Z,7.95
2019-05-29T22:40:12.914Z,6.92
2019-05-29T22:42:42.322Z,5.10
2019-05-29T22:45:12.134Z,7.65
2019-05-29T22:47:41.536Z,9.18
2019-05-29T22:50:11.855Z,5.85
2019-05-29T22:52:41.374Z,8.35
2019-05-29T22:55:10.872Z,5.47
2019-05-29T22:57:40.233Z,7.35
2019-05-29T23:00:10.397Z,6.42
2019-05-29T23:02:39.595Z,6.45
2019-05-29T23:05:09.814Z,8.58
2019-05-29T23:07:39.154Z,11.75
2019-05-29T23:10:11.793Z,9.70
2019-05-29T23:12:41.394Z,11.35
2019-05-29T23:15:10.993Z,6.05
2019-05-29T23:17:40.297Z,6.40
2019-05-29T23:20:10.015Z,7.33
2019-05-29T23:22:39.295Z,5.42
2019-05-29T23:25:08.913Z,7.28
2019-05-29T23:27:38.105Z,10.08
2019-05-29T23:30:08.835Z,5.83
2019-05-29T23:32:38.236Z,6.97
2019-05-29T23:35:08.475Z,7.62
2019-05-29T23:37:38.074Z,6.53
2019-05-29T23:40:08.104Z,5.62
2019-05-29T23:42:37.274Z,7.05
2019-05-29T23:45:08.407Z,10.35
2019-05-29T23:47:37.722Z,7.87
2019-05-29T23:50:08.361Z,7.97
2019-05-29T23:52:37.755Z,8.78
2019-05-29T23:55:09.305Z,8.60
2019-05-29T23:57:38.854Z,7.67
